sensor_id;sensor_type;location;lat;lon;timestamp;P1;durP1;ratioP1;P2;durP2;ratioP2
13571;SDS011;6857;53.484;10.216;2022-10-16T00:01:19;8.90;;;7.97;;
13571;SDS011;6857;53.484;10.216;2022-10-16T00:03:45;10.40;;;7.83;;
13571;SDS011;6857;53.484;10.216;2022-10-16T00:06:11;9.83;;;8.13;;
13571;SDS011;6857;53.484;10.216;2022-10-16T00:08:38;10.97;;;8.87;;
13571;SDS011;6857;53.484;10.216;2022-10-16T00:11:08;9.23;;;7.90;;
13571;SDS011;6857;53.484;10.216;2022-10-16T00:13:35;9.57;;;7.73;;
13571;SDS011;6857;53.484;10.216;2022-10-16T00:16:01;11.97;;;8.40;;
13571;SDS011;6857;53.484;10.216;2022-10-16T00:18:28;10.50;;;8.33;;
13571;SDS011;6857;53.484;10.216;2022-10-16T00:20:54;8.93;;;7.70;;
13571;SDS011;6857;53.484;10.216;2022-10-16T00:23:20;9.10;;;7.97;;
13571;SDS011;6857;53.484;10.216;2022-10-16T00:26:00;10.43;;;8.33;;
13571;SDS011;6857;53.484;10.216;2022-10-16T00:28:26;8.80;;;7.43;;
13571;SDS011;6857;53.484;10.216;2022-10-16T00:30:52;8.13;;;7.33;;
13571;SDS011;6857;53.484;10.216;2022-10-16T00:33:18;9.17;;;8.00;;
13571;SDS011;6857;53.484;10.216;2022-10-16T00:35:44;9.27;;;8.27;;
13571;SDS011;6857;53.484;10.216;2022-10-16T00:38:10;8.23;;;7.37;;
13571;SDS011;6857;53.484;10.216;2022-10-16T00:40:36;9.20;;;7.93;;
13571;SDS011;6857;53.484;10.216;2022-10-16T00:43:02;9.03;;;7.97;;
13571;SDS011;6857;53.484;10.216;2022-10-16T00:45:28;10.83;;;8.03;;
13571;SDS011;6857;53.484;10.216;2022-10-16T00:47:54;10.80;;;7.30;;
13571;SDS011;6857;53.484;10.216;2022-10-16T00:50:28;12.57;;;7.43;;
13571;SDS011;6857;53.484;10.216;2022-10-16T00:52:55;9.13;;;7.70;;
13571;SDS011;6857;53.484;10.216;2022-10-16T00:55:22;9.23;;;7.67;;
13571;SDS011;6857;53.484;10.216;2022-10-16T00:57:49;9.13;;;7.37;;
13571;SDS011;6857;53.484;10.216;2022-10-16T01:00:17;10.30;;;7.97;;
13571;SDS011;6857;53.484;10.216;2022-10-16T01:02:43;9.80;;;6.80;;
13571;SDS011;6857;53.484;10.216;2022-10-16T01:05:09;9.37;;;6.63;;
13571;SDS011;6857;53.484;10.216;2022-10-16T01:15:15;9.00;;;7.43;;
13571;SDS011;6857;53.484;10.216;2022-10-16T01:17:51;7.97;;;7.10;;
13571;SDS011;6857;53.484;10.216;2022-10-16T01:20:25;10.23;;;7.83;;
13571;SDS011;6857;53.484;10.216;2022-10-16T01:23:15;9.47;;;7.57;;
13571;SDS011;6857;53.484;10.216;2022-10-16T01:28:16;10.63;;;5.37;;
13571;SDS011;6857;53.484;10.216;2022-10-16T01:30:44;6.87;;;5.17;;
13571;SDS011;6857;53.484;10.216;2022-10-16T01:33:18;8.93;;;5.40;;
13571;SDS011;6857;53.484;10.216;2022-10-16T01:35:52;7.13;;;4.80;;
13571;SDS011;6857;53.484;10.216;2022-10-16T01:38:35;7.03;;;5.17;;
13571;SDS011;6857;53.484;10.216;2022-10-16T01:41:04;7.83;;;4.73;;
13571;SDS011;6857;53.484;10.216;2022-10-16T01:43:33;7.70;;;4.93;;
13571;SDS011;6857;53.484;10.216;2022-10-16T01:46:01;6.33;;;4.40;;
13571;SDS011;6857;53.484;10.216;2022-10-16T01:48:27;6.67;;;4.43;;
13571;SDS011;6857;53.484;10.216;2022-10-16T01:50:59;4.23;;;3.60;;
13571;SDS011;6857;53.484;10.216;2022-10-16T01:53:25;5.30;;;3.90;;
13571;SDS011;6857;53.484;10.216;2022-10-16T01:55:52;7.33;;;4.37;;
13571;SDS011;6857;53.484;10.216;2022-10-16T01:58:19;3.37;;;2.97;;
13571;SDS011;6857;53.484;10.216;2022-10-16T02:00:46;4.97;;;3.57;;
13571;SDS011;6857;53.484;10.216;2022-10-16T02:03:14;7.57;;;3.37;;
13571;SDS011;6857;53.484;10.216;2022-10-16T02:08:07;6.87;;;2.90;;
13571;SDS011;6857;53.484;10.216;2022-10-16T02:10:34;3.23;;;2.93;;
13571;SDS011;6857;53.484;10.216;2022-10-16T02:13:04;6.23;;;3.07;;
13571;SDS011;6857;53.484;10.216;2022-10-16T02:15:30;6.50;;;2.80;;
13571;SDS011;6857;53.484;10.216;2022-10-16T02:17:56;5.60;;;2.57;;
13571;SDS011;6857;53.484;10.216;2022-10-16T02:20:25;3.10;;;2.50;;
13571;SDS011;6857;53.484;10.216;2022-10-16T02:22:52;7.87;;;2.90;;
13571;SDS011;6857;53.484;10.216;2022-10-16T02:25:24;6.13;;;3.20;;
13571;SDS011;6857;53.484;10.216;2022-10-16T02:28:11;4.97;;;2.67;;
13571;SDS011;6857;53.484;10.216;2022-10-16T02:30:42;3.80;;;2.50;;
13571;SDS011;6857;53.484;10.216;2022-10-16T02:33:10;5.07;;;2.60;;
13571;SDS011;6857;53.484;10.216;2022-10-16T02:35:38;3.07;;;2.60;;
13571;SDS011;6857;53.484;10.216;2022-10-16T02:38:05;3.97;;;2.50;;
13571;SDS011;6857;53.484;10.216;2022-10-16T02:40:32;5.23;;;2.80;;
13571;SDS011;6857;53.484;10.216;2022-10-16T02:42:58;3.77;;;2.53;;
13571;SDS011;6857;53.484;10.216;2022-10-16T02:45:24;3.40;;;2.30;;
13571;SDS011;6857;53.484;10.216;2022-10-16T02:47:50;2.43;;;2.23;;
13571;SDS011;6857;53.484;10.216;2022-10-16T02:50:16;4.57;;;2.47;;
13571;SDS011;6857;53.484;10.216;2022-10-16T02:52:42;4.97;;;2.70;;
13571;SDS011;6857;53.484;10.216;2022-10-16T02:55:09;3.70;;;2.50;;
13571;SDS011;6857;53.484;10.216;2022-10-16T02:57:34;5.80;;;2.83;;
13571;SDS011;6857;53.484;10.216;2022-10-16T03:00:02;3.87;;;2.03;;
13571;SDS011;6857;53.484;10.216;2022-10-16T03:02:28;3.80;;;2.13;;
13571;SDS011;6857;53.484;10.216;2022-10-16T03:04:54;3.83;;;2.13;;
13571;SDS011;6857;53.484;10.216;2022-10-16T03:07:20;3.57;;;2.00;;
13571;SDS011;6857;53.484;10.216;2022-10-16T03:09:46;4.33;;;2.17;;
13571;SDS011;6857;53.484;10.216;2022-10-16T03:12:12;4.13;;;2.50;;
13571;SDS011;6857;53.484;10.216;2022-10-16T03:14:38;3.80;;;1.90;;
13571;SDS011;6857;53.484;10.216;2022-10-16T03:17:05;3.73;;;2.20;;
13571;SDS011;6857;53.484;10.216;2022-10-16T03:19:31;3.23;;;2.27;;
13571;SDS011;6857;53.484;10.216;2022-10-16T03:21:57;10.10;;;2.43;;
13571;SDS011;6857;53.484;10.216;2022-10-16T03:24:23;5.33;;;2.10;;
13571;SDS011;6857;53.484;10.216;2022-10-16T03:26:49;4.77;;;2.07;;
13571;SDS011;6857;53.484;10.216;2022-10-16T03:29:15;4.33;;;2.00;;
13571;SDS011;6857;53.484;10.216;2022-10-16T03:31:41;6.50;;;2.33;;
13571;SDS011;6857;53.484;10.216;2022-10-16T03:34:07;5.37;;;2.00;;
13571;SDS011;6857;53.484;10.216;2022-10-16T03:36:33;4.13;;;2.37;;
13571;SDS011;6857;53.484;10.216;2022-10-16T03:38:59;2.47;;;2.00;;
13571;SDS011;6857;53.484;10.216;2022-10-16T03:41:25;6.60;;;2.50;;
13571;SDS011;6857;53.484;10.216;2022-10-16T03:43:51;4.47;;;2.13;;
13571;SDS011;6857;53.484;10.216;2022-10-16T03:46:17;2.63;;;2.00;;
13571;SDS011;6857;53.484;10.216;2022-10-16T03:48:43;2.27;;;1.80;;
13571;SDS011;6857;53.484;10.216;2022-10-16T03:51:09;3.77;;;2.40;;
13571;SDS011;6857;53.484;10.216;2022-10-16T03:53:35;5.27;;;2.27;;
13571;SDS011;6857;53.484;10.216;2022-10-16T03:56:01;4.93;;;1.80;;
13571;SDS011;6857;53.484;10.216;2022-10-16T03:58:27;4.23;;;1.77;;
13571;SDS011;6857;53.484;10.216;2022-10-16T04:00:53;3.37;;;1.80;;
13571;SDS011;6857;53.484;10.216;2022-10-16T04:03:19;4.90;;;1.80;;
13571;SDS011;6857;53.484;10.216;2022-10-16T04:05:46;4.13;;;2.17;;
13571;SDS011;6857;53.484;10.216;2022-10-16T04:08:12;7.17;;;2.50;;
13571;SDS011;6857;53.484;10.216;2022-10-16T04:10:38;5.10;;;1.73;;
13571;SDS011;6857;53.484;10.216;2022-10-16T04:13:04;4.03;;;1.60;;
13571;SDS011;6857;53.484;10.216;2022-10-16T04:15:29;2.40;;;1.60;;
13571;SDS011;6857;53.484;10.216;2022-10-16T04:17:55;4.10;;;1.80;;
13571;SDS011;6857;53.484;10.216;2022-10-16T04:20:21;3.93;;;1.57;;
13571;SDS011;6857;53.484;10.216;2022-10-16T04:22:47;3.90;;;1.70;;
13571;SDS011;6857;53.484;10.216;2022-10-16T04:25:13;2.33;;;1.73;;
13571;SDS011;6857;53.484;10.216;2022-10-16T04:27:39;5.40;;;1.70;;
13571;SDS011;6857;53.484;10.216;2022-10-16T04:30:05;2.37;;;1.53;;
13571;SDS011;6857;53.484;10.216;2022-10-16T04:32:31;2.77;;;1.53;;
13571;SDS011;6857;53.484;10.216;2022-10-16T04:34:57;1.57;;;1.00;;
13571;SDS011;6857;53.484;10.216;2022-10-16T04:37:24;5.20;;;1.70;;
13571;SDS011;6857;53.484;10.216;2022-10-16T04:39:50;3.00;;;1.70;;
13571;SDS011;6857;53.484;10.216;2022-10-16T04:42:16;2.80;;;1.80;;
13571;SDS011;6857;53.484;10.216;2022-10-16T04:44:42;2.93;;;1.47;;
13571;SDS011;6857;53.484;10.216;2022-10-16T04:47:08;3.80;;;1.67;;
13571;SDS011;6857;53.484;10.216;2022-10-16T04:49:34;7.77;;;4.47;;
13571;SDS011;6857;53.484;10.216;2022-10-16T04:52:00;2.90;;;2.07;;
13571;SDS011;6857;53.484;10.216;2022-10-16T04:54:26;4.50;;;2.03;;
13571;SDS011;6857;53.484;10.216;2022-10-16T04:56:52;3.90;;;1.97;;
13571;SDS011;6857;53.484;10.216;2022-10-16T04:59:18;7.47;;;4.30;;
13571;SDS011;6857;53.484;10.216;2022-10-16T05:01:44;10.07;;;5.97;;
13571;SDS011;6857;53.484;10.216;2022-10-16T05:04:11;5.17;;;2.03;;
13571;SDS011;6857;53.484;10.216;2022-10-16T05:06:37;3.60;;;2.30;;
13571;SDS011;6857;53.484;10.216;2022-10-16T05:09:06;4.53;;;2.10;;
13571;SDS011;6857;53.484;10.216;2022-10-16T05:11:33;12.77;;;2.33;;
13571;SDS011;6857;53.484;10.216;2022-10-16T05:13:59;8.63;;;5.60;;
13571;SDS011;6857;53.484;10.216;2022-10-16T05:16:25;5.77;;;2.63;;
13571;SDS011;6857;53.484;10.216;2022-10-16T05:18:51;5.93;;;3.20;;
13571;SDS011;6857;53.484;10.216;2022-10-16T05:21:17;4.13;;;2.63;;
13571;SDS011;6857;53.484;10.216;2022-10-16T05:23:43;5.93;;;2.40;;
13571;SDS011;6857;53.484;10.216;2022-10-16T05:26:10;4.20;;;2.00;;
13571;SDS011;6857;53.484;10.216;2022-10-16T05:28:36;8.47;;;5.60;;
13571;SDS011;6857;53.484;10.216;2022-10-16T05:31:08;5.23;;;2.50;;
13571;SDS011;6857;53.484;10.216;2022-10-16T05:33:35;3.73;;;1.87;;
13571;SDS011;6857;53.484;10.216;2022-10-16T05:36:04;4.70;;;1.90;;
13571;SDS011;6857;53.484;10.216;2022-10-16T05:38:31;2.90;;;1.80;;
13571;SDS011;6857;53.484;10.216;2022-10-16T05:40:57;5.67;;;2.40;;
13571;SDS011;6857;53.484;10.216;2022-10-16T05:43:23;8.37;;;5.03;;
13571;SDS011;6857;53.484;10.216;2022-10-16T05:45:59;2.97;;;1.87;;
13571;SDS011;6857;53.484;10.216;2022-10-16T05:48:26;7.20;;;5.00;;
13571;SDS011;6857;53.484;10.216;2022-10-16T05:50:59;4.60;;;2.17;;
13571;SDS011;6857;53.484;10.216;2022-10-16T05:53:26;5.00;;;2.53;;
13571;SDS011;6857;53.484;10.216;2022-10-16T05:55:52;7.00;;;2.03;;
13571;SDS011;6857;53.484;10.216;2022-10-16T05:58:18;4.73;;;2.33;;
13571;SDS011;6857;53.484;10.216;2022-10-16T06:00:44;7.83;;;2.87;;
13571;SDS011;6857;53.484;10.216;2022-10-16T06:03:10;4.27;;;3.23;;
13571;SDS011;6857;53.484;10.216;2022-10-16T06:05:36;6.73;;;3.80;;
13571;SDS011;6857;53.484;10.216;2022-10-16T06:08:02;3.57;;;2.50;;
13571;SDS011;6857;53.484;10.216;2022-10-16T06:10:28;4.30;;;3.10;;
13571;SDS011;6857;53.484;10.216;2022-10-16T06:12:54;5.27;;;2.30;;
13571;SDS011;6857;53.484;10.216;2022-10-16T06:15:20;8.87;;;4.37;;
13571;SDS011;6857;53.484;10.216;2022-10-16T06:17:46;5.20;;;3.10;;
13571;SDS011;6857;53.484;10.216;2022-10-16T06:20:12;12.73;;;7.87;;
13571;SDS011;6857;53.484;10.216;2022-10-16T06:22:38;5.63;;;3.87;;
13571;SDS011;6857;53.484;10.216;2022-10-16T06:25:04;2.87;;;2.13;;
13571;SDS011;6857;53.484;10.216;2022-10-16T06:27:30;4.50;;;2.30;;
13571;SDS011;6857;53.484;10.216;2022-10-16T06:29:56;4.90;;;2.87;;
13571;SDS011;6857;53.484;10.216;2022-10-16T06:32:22;3.13;;;2.57;;
13571;SDS011;6857;53.484;10.216;2022-10-16T06:34:48;5.63;;;4.20;;
13571;SDS011;6857;53.484;10.216;2022-10-16T06:37:14;4.93;;;3.10;;
13571;SDS011;6857;53.484;10.216;2022-10-16T06:39:40;10.27;;;6.17;;
13571;SDS011;6857;53.484;10.216;2022-10-16T06:42:06;4.63;;;3.40;;
13571;SDS011;6857;53.484;10.216;2022-10-16T06:44:32;4.97;;;2.70;;
13571;SDS011;6857;53.484;10.216;2022-10-16T06:46:58;7.53;;;4.07;;
13571;SDS011;6857;53.484;10.216;2022-10-16T06:49:24;5.73;;;2.90;;
13571;SDS011;6857;53.484;10.216;2022-10-16T06:51:50;9.80;;;4.97;;
13571;SDS011;6857;53.484;10.216;2022-10-16T06:54:16;5.70;;;3.87;;
13571;SDS011;6857;53.484;10.216;2022-10-16T06:56:42;4.73;;;2.97;;
13571;SDS011;6857;53.484;10.216;2022-10-16T06:59:09;9.33;;;6.83;;
13571;SDS011;6857;53.484;10.216;2022-10-16T07:01:35;6.60;;;3.87;;
13571;SDS011;6857;53.484;10.216;2022-10-16T07:04:01;7.43;;;4.50;;
13571;SDS011;6857;53.484;10.216;2022-10-16T07:06:30;7.93;;;4.60;;
13571;SDS011;6857;53.484;10.216;2022-10-16T07:08:56;10.93;;;7.10;;
13571;SDS011;6857;53.484;10.216;2022-10-16T07:11:22;10.87;;;4.90;;
13571;SDS011;6857;53.484;10.216;2022-10-16T07:13:49;7.20;;;4.53;;
13571;SDS011;6857;53.484;10.216;2022-10-16T07:16:17;9.70;;;5.80;;
13571;SDS011;6857;53.484;10.216;2022-10-16T07:18:43;7.40;;;3.70;;
13571;SDS011;6857;53.484;10.216;2022-10-16T07:21:14;4.97;;;3.37;;
13571;SDS011;6857;53.484;10.216;2022-10-16T07:23:41;6.13;;;3.40;;
13571;SDS011;6857;53.484;10.216;2022-10-16T07:26:07;4.77;;;3.30;;
13571;SDS011;6857;53.484;10.216;2022-10-16T07:28:33;6.87;;;4.23;;
13571;SDS011;6857;53.484;10.216;2022-10-16T07:31:00;5.53;;;3.50;;
13571;SDS011;6857;53.484;10.216;2022-10-16T07:33:26;6.57;;;4.03;;
13571;SDS011;6857;53.484;10.216;2022-10-16T07:35:53;5.23;;;3.77;;
13571;SDS011;6857;53.484;10.216;2022-10-16T07:38:20;5.73;;;3.20;;
13571;SDS011;6857;53.484;10.216;2022-10-16T07:40:46;7.33;;;3.67;;
13571;SDS011;6857;53.484;10.216;2022-10-16T07:43:13;5.63;;;3.47;;
13571;SDS011;6857;53.484;10.216;2022-10-16T07:45:46;6.97;;;4.97;;
13571;SDS011;6857;53.484;10.216;2022-10-16T07:48:12;5.43;;;2.60;;
13571;SDS011;6857;53.484;10.216;2022-10-16T07:50:38;5.30;;;2.87;;
13571;SDS011;6857;53.484;10.216;2022-10-16T07:53:04;3.70;;;2.83;;
13571;SDS011;6857;53.484;10.216;2022-10-16T07:55:30;8.33;;;3.63;;
13571;SDS011;6857;53.484;10.216;2022-10-16T07:57:56;3.60;;;2.40;;
13571;SDS011;6857;53.484;10.216;2022-10-16T08:00:22;3.40;;;3.03;;
13571;SDS011;6857;53.484;10.216;2022-10-16T08:02:48;2.90;;;2.30;;
13571;SDS011;6857;53.484;10.216;2022-10-16T08:05:14;6.10;;;4.00;;
13571;SDS011;6857;53.484;10.216;2022-10-16T08:07:40;2.77;;;2.00;;
13571;SDS011;6857;53.484;10.216;2022-10-16T08:10:06;5.90;;;2.00;;
13571;SDS011;6857;53.484;10.216;2022-10-16T08:12:32;5.50;;;2.20;;
13571;SDS011;6857;53.484;10.216;2022-10-16T08:14:58;3.63;;;2.13;;
13571;SDS011;6857;53.484;10.216;2022-10-16T08:17:24;4.33;;;2.33;;
13571;SDS011;6857;53.484;10.216;2022-10-16T08:19:50;3.60;;;1.80;;
13571;SDS011;6857;53.484;10.216;2022-10-16T08:22:16;3.63;;;2.37;;
13571;SDS011;6857;53.484;10.216;2022-10-16T08:24:42;3.37;;;2.03;;
13571;SDS011;6857;53.484;10.216;2022-10-16T08:27:08;5.47;;;1.90;;
13571;SDS011;6857;53.484;10.216;2022-10-16T08:29:35;4.43;;;2.10;;
13571;SDS011;6857;53.484;10.216;2022-10-16T08:32:01;4.27;;;2.47;;
13571;SDS011;6857;53.484;10.216;2022-10-16T08:34:29;3.87;;;2.20;;
13571;SDS011;6857;53.484;10.216;2022-10-16T08:36:55;2.30;;;1.67;;
13571;SDS011;6857;53.484;10.216;2022-10-16T08:39:21;4.10;;;1.63;;
13571;SDS011;6857;53.484;10.216;2022-10-16T08:47:17;6.30;;;2.37;;
13571;SDS011;6857;53.484;10.216;2022-10-16T08:49:47;6.33;;;1.90;;
13571;SDS011;6857;53.484;10.216;2022-10-16T08:52:18;7.00;;;1.73;;
13571;SDS011;6857;53.484;10.216;2022-10-16T08:54:45;3.07;;;1.60;;
13571;SDS011;6857;53.484;10.216;2022-10-16T08:57:17;3.60;;;1.60;;
13571;SDS011;6857;53.484;10.216;2022-10-16T08:59:45;2.33;;;1.40;;
13571;SDS011;6857;53.484;10.216;2022-10-16T09:02:19;3.93;;;1.50;;
13571;SDS011;6857;53.484;10.216;2022-10-16T09:04:56;3.77;;;1.50;;
13571;SDS011;6857;53.484;10.216;2022-10-16T09:10:11;3.43;;;1.30;;
13571;SDS011;6857;53.484;10.216;2022-10-16T09:15:12;3.53;;;1.70;;
13571;SDS011;6857;53.484;10.216;2022-10-16T09:20:16;2.60;;;1.50;;
13571;SDS011;6857;53.484;10.216;2022-10-16T09:22:44;3.53;;;1.30;;
13571;SDS011;6857;53.484;10.216;2022-10-16T09:25:11;3.30;;;1.60;;
13571;SDS011;6857;53.484;10.216;2022-10-16T09:27:37;3.37;;;1.40;;
13571;SDS011;6857;53.484;10.216;2022-10-16T09:30:13;5.47;;;2.03;;
13571;SDS011;6857;53.484;10.216;2022-10-16T09:32:40;2.13;;;1.93;;
13571;SDS011;6857;53.484;10.216;2022-10-16T09:35:11;2.93;;;1.40;;
13571;SDS011;6857;53.484;10.216;2022-10-16T09:37:38;3.43;;;1.40;;
13571;SDS011;6857;53.484;10.216;2022-10-16T09:40:05;1.83;;;1.50;;
13571;SDS011;6857;53.484;10.216;2022-10-16T09:42:32;2.17;;;1.50;;
13571;SDS011;6857;53.484;10.216;2022-10-16T09:45:00;2.43;;;1.50;;
13571;SDS011;6857;53.484;10.216;2022-10-16T09:47:27;4.17;;;1.23;;
13571;SDS011;6857;53.484;10.216;2022-10-16T09:50:36;3.47;;;1.10;;
13571;SDS011;6857;53.484;10.216;2022-10-16T09:52:43;2.33;;;1.10;;
13571;SDS011;6857;53.484;10.216;2022-10-16T09:55:13;3.00;;;1.10;;
13571;SDS011;6857;53.484;10.216;2022-10-16T09:57:51;3.27;;;1.40;;
13571;SDS011;6857;53.484;10.216;2022-10-16T10:00:18;5.03;;;1.30;;
13571;SDS011;6857;53.484;10.216;2022-10-16T10:02:44;3.23;;;1.10;;
13571;SDS011;6857;53.484;10.216;2022-10-16T10:05:18;4.17;;;1.30;;
13571;SDS011;6857;53.484;10.216;2022-10-16T10:07:45;4.07;;;1.37;;
13571;SDS011;6857;53.484;10.216;2022-10-16T10:10:22;3.70;;;1.20;;
13571;SDS011;6857;53.484;10.216;2022-10-16T10:12:49;1.80;;;1.00;;
13571;SDS011;6857;53.484;10.216;2022-10-16T10:15:15;2.43;;;1.00;;
13571;SDS011;6857;53.484;10.216;2022-10-16T10:17:54;2.87;;;1.10;;
13571;SDS011;6857;53.484;10.216;2022-10-16T10:20:28;3.30;;;1.23;;
13571;SDS011;6857;53.484;10.216;2022-10-16T10:22:55;4.07;;;1.20;;
13571;SDS011;6857;53.484;10.216;2022-10-16T10:26:10;2.33;;;1.00;;
13571;SDS011;6857;53.484;10.216;2022-10-16T10:35:41;3.47;;;0.80;;
13571;SDS011;6857;53.484;10.216;2022-10-16T10:45:48;3.40;;;1.10;;
13571;SDS011;6857;53.484;10.216;2022-10-16T10:50:43;2.00;;;0.97;;
13571;SDS011;6857;53.484;10.216;2022-10-16T11:01:07;2.47;;;0.97;;
13571;SDS011;6857;53.484;10.216;2022-10-16T11:08:41;1.70;;;0.77;;
13571;SDS011;6857;53.484;10.216;2022-10-16T11:11:17;2.63;;;0.90;;
13571;SDS011;6857;53.484;10.216;2022-10-16T11:13:48;2.60;;;1.00;;
13571;SDS011;6857;53.484;10.216;2022-10-16T11:16:20;5.13;;;0.80;;
13571;SDS011;6857;53.484;10.216;2022-10-16T11:18:50;5.13;;;1.00;;
13571;SDS011;6857;53.484;10.216;2022-10-16T11:21:18;2.80;;;0.90;;
13571;SDS011;6857;53.484;10.216;2022-10-16T11:26:33;3.97;;;1.43;;
13571;SDS011;6857;53.484;10.216;2022-10-16T11:29:00;4.37;;;1.00;;
13571;SDS011;6857;53.484;10.216;2022-10-16T11:31:47;4.93;;;1.50;;
13571;SDS011;6857;53.484;10.216;2022-10-16T11:37:11;2.00;;;1.30;;
13571;SDS011;6857;53.484;10.216;2022-10-16T11:39:40;2.70;;;0.90;;
13571;SDS011;6857;53.484;10.216;2022-10-16T11:42:24;2.00;;;0.80;;
13571;SDS011;6857;53.484;10.216;2022-10-16T11:44:57;3.30;;;1.10;;
13571;SDS011;6857;53.484;10.216;2022-10-16T11:50:02;2.27;;;0.90;;
13571;SDS011;6857;53.484;10.216;2022-10-16T11:55:13;3.17;;;1.57;;
13571;SDS011;6857;53.484;10.216;2022-10-16T11:57:42;4.93;;;2.40;;
13571;SDS011;6857;53.484;10.216;2022-10-16T12:00:14;7.67;;;3.10;;
13571;SDS011;6857;53.484;10.216;2022-10-16T12:05:22;1.80;;;0.70;;
13571;SDS011;6857;53.484;10.216;2022-10-16T12:07:51;2.50;;;1.33;;
13571;SDS011;6857;53.484;10.216;2022-10-16T12:10:23;2.73;;;0.80;;
13571;SDS011;6857;53.484;10.216;2022-10-16T12:12:49;4.13;;;1.33;;
13571;SDS011;6857;53.484;10.216;2022-10-16T12:15:29;4.00;;;1.90;;
13571;SDS011;6857;53.484;10.216;2022-10-16T12:17:55;2.67;;;0.90;;
13571;SDS011;6857;53.484;10.216;2022-10-16T12:20:29;1.93;;;1.10;;
13571;SDS011;6857;53.484;10.216;2022-10-16T12:23:00;2.63;;;0.90;;
13571;SDS011;6857;53.484;10.216;2022-10-16T12:25:28;3.93;;;1.30;;
13571;SDS011;6857;53.484;10.216;2022-10-16T12:30:22;2.47;;;1.03;;
13571;SDS011;6857;53.484;10.216;2022-10-16T12:32:56;5.83;;;3.17;;
13571;SDS011;6857;53.484;10.216;2022-10-16T12:35:27;5.50;;;1.23;;
13571;SDS011;6857;53.484;10.216;2022-10-16T12:37:54;7.27;;;1.70;;
13571;SDS011;6857;53.484;10.216;2022-10-16T12:40:31;3.77;;;1.67;;
13571;SDS011;6857;53.484;10.216;2022-10-16T12:42:57;3.00;;;1.00;;
13571;SDS011;6857;53.484;10.216;2022-10-16T12:45:30;3.63;;;1.50;;
13571;SDS011;6857;53.484;10.216;2022-10-16T12:47:57;2.33;;;0.90;;
13571;SDS011;6857;53.484;10.216;2022-10-16T12:50:34;3.40;;;1.40;;
13571;SDS011;6857;53.484;10.216;2022-10-16T12:53:01;3.00;;;1.10;;
13571;SDS011;6857;53.484;10.216;2022-10-16T12:55:30;4.53;;;2.20;;
13571;SDS011;6857;53.484;10.216;2022-10-16T13:00:50;2.60;;;1.00;;
13571;SDS011;6857;53.484;10.216;2022-10-16T13:03:43;5.47;;;1.50;;
13571;SDS011;6857;53.484;10.216;2022-10-16T13:11:43;3.67;;;1.00;;
13571;SDS011;6857;53.484;10.216;2022-10-16T13:21:56;2.00;;;1.07;;
13571;SDS011;6857;53.484;10.216;2022-10-16T13:27:07;6.63;;;1.20;;
13571;SDS011;6857;53.484;10.216;2022-10-16T13:29:37;4.87;;;1.07;;
13571;SDS011;6857;53.484;10.216;2022-10-16T13:32:07;3.30;;;1.00;;
13571;SDS011;6857;53.484;10.216;2022-10-16T13:34:41;4.30;;;1.07;;
13571;SDS011;6857;53.484;10.216;2022-10-16T13:37:15;3.43;;;1.10;;
13571;SDS011;6857;53.484;10.216;2022-10-16T13:39:42;2.63;;;1.00;;
13571;SDS011;6857;53.484;10.216;2022-10-16T13:42:12;9.33;;;1.43;;
13571;SDS011;6857;53.484;10.216;2022-10-16T13:44:49;3.63;;;0.90;;
13571;SDS011;6857;53.484;10.216;2022-10-16T13:47:23;1.63;;;0.80;;
13571;SDS011;6857;53.484;10.216;2022-10-16T13:52:27;4.67;;;1.10;;
13571;SDS011;6857;53.484;10.216;2022-10-16T13:54:53;5.23;;;1.27;;
13571;SDS011;6857;53.484;10.216;2022-10-16T13:57:21;5.20;;;1.33;;
13571;SDS011;6857;53.484;10.216;2022-10-16T13:59:47;6.10;;;1.10;;
13571;SDS011;6857;53.484;10.216;2022-10-16T14:02:35;3.17;;;1.37;;
13571;SDS011;6857;53.484;10.216;2022-10-16T14:05:00;2.83;;;1.13;;
13571;SDS011;6857;53.484;10.216;2022-10-16T14:07:30;5.33;;;1.37;;
13571;SDS011;6857;53.484;10.216;2022-10-16T14:10:00;3.37;;;1.13;;
13571;SDS011;6857;53.484;10.216;2022-10-16T14:12:26;4.03;;;1.10;;
13571;SDS011;6857;53.484;10.216;2022-10-16T14:14:53;4.43;;;1.30;;
13571;SDS011;6857;53.484;10.216;2022-10-16T14:17:27;3.33;;;1.27;;
13571;SDS011;6857;53.484;10.216;2022-10-16T14:19:54;5.03;;;1.70;;
13571;SDS011;6857;53.484;10.216;2022-10-16T14:22:30;5.47;;;1.90;;
13571;SDS011;6857;53.484;10.216;2022-10-16T14:24:58;5.67;;;1.60;;
13571;SDS011;6857;53.484;10.216;2022-10-16T14:27:34;3.73;;;1.00;;
13571;SDS011;6857;53.484;10.216;2022-10-16T14:32:39;3.60;;;1.20;;
13571;SDS011;6857;53.484;10.216;2022-10-16T14:35:21;2.63;;;1.23;;
13571;SDS011;6857;53.484;10.216;2022-10-16T14:37:50;3.53;;;0.80;;
13571;SDS011;6857;53.484;10.216;2022-10-16T14:40:16;4.97;;;1.27;;
13571;SDS011;6857;53.484;10.216;2022-10-16T14:42:43;7.67;;;1.70;;
13571;SDS011;6857;53.484;10.216;2022-10-16T14:45:10;3.73;;;1.70;;
13571;SDS011;6857;53.484;10.216;2022-10-16T14:47:36;4.10;;;1.43;;
13571;SDS011;6857;53.484;10.216;2022-10-16T14:50:11;4.13;;;1.17;;
13571;SDS011;6857;53.484;10.216;2022-10-16T14:52:37;4.03;;;1.00;;
13571;SDS011;6857;53.484;10.216;2022-10-16T14:55:03;4.47;;;1.30;;
13571;SDS011;6857;53.484;10.216;2022-10-16T14:57:30;5.13;;;1.47;;
13571;SDS011;6857;53.484;10.216;2022-10-16T14:59:58;3.03;;;1.27;;
13571;SDS011;6857;53.484;10.216;2022-10-16T15:02:30;5.83;;;1.50;;
13571;SDS011;6857;53.484;10.216;2022-10-16T15:04:57;2.70;;;1.20;;
13571;SDS011;6857;53.484;10.216;2022-10-16T15:07:23;3.80;;;1.50;;
13571;SDS011;6857;53.484;10.216;2022-10-16T15:09:50;4.63;;;1.53;;
13571;SDS011;6857;53.484;10.216;2022-10-16T15:12:16;5.10;;;1.20;;
13571;SDS011;6857;53.484;10.216;2022-10-16T15:14:42;3.57;;;1.30;;
13571;SDS011;6857;53.484;10.216;2022-10-16T15:17:11;8.17;;;1.60;;
13571;SDS011;6857;53.484;10.216;2022-10-16T15:19:37;4.63;;;2.43;;
13571;SDS011;6857;53.484;10.216;2022-10-16T15:22:03;3.93;;;1.37;;
13571;SDS011;6857;53.484;10.216;2022-10-16T15:24:29;4.00;;;1.80;;
13571;SDS011;6857;53.484;10.216;2022-10-16T15:26:55;2.83;;;1.20;;
13571;SDS011;6857;53.484;10.216;2022-10-16T15:29:21;5.03;;;1.10;;
13571;SDS011;6857;53.484;10.216;2022-10-16T15:31:47;3.80;;;1.40;;
13571;SDS011;6857;53.484;10.216;2022-10-16T15:34:13;3.43;;;1.17;;
13571;SDS011;6857;53.484;10.216;2022-10-16T15:36:39;3.53;;;1.20;;
13571;SDS011;6857;53.484;10.216;2022-10-16T15:39:15;3.37;;;1.13;;
13571;SDS011;6857;53.484;10.216;2022-10-16T15:41:42;4.53;;;1.40;;
13571;SDS011;6857;53.484;10.216;2022-10-16T15:44:08;8.40;;;2.57;;
13571;SDS011;6857;53.484;10.216;2022-10-16T15:46:34;4.97;;;1.30;;
13571;SDS011;6857;53.484;10.216;2022-10-16T15:49:02;7.80;;;3.23;;
13571;SDS011;6857;53.484;10.216;2022-10-16T15:51:28;8.53;;;3.70;;
13571;SDS011;6857;53.484;10.216;2022-10-16T15:53:57;5.73;;;2.90;;
13571;SDS011;6857;53.484;10.216;2022-10-16T15:56:23;4.93;;;2.27;;
13571;SDS011;6857;53.484;10.216;2022-10-16T15:58:51;8.07;;;2.43;;
13571;SDS011;6857;53.484;10.216;2022-10-16T16:01:17;5.83;;;1.37;;
13571;SDS011;6857;53.484;10.216;2022-10-16T16:03:43;4.13;;;1.60;;
13571;SDS011;6857;53.484;10.216;2022-10-16T16:06:10;4.37;;;1.30;;
13571;SDS011;6857;53.484;10.216;2022-10-16T16:08:36;6.13;;;1.43;;
13571;SDS011;6857;53.484;10.216;2022-10-16T16:11:03;7.63;;;1.13;;
13571;SDS011;6857;53.484;10.216;2022-10-16T16:13:30;3.73;;;1.60;;
13571;SDS011;6857;53.484;10.216;2022-10-16T16:15:56;3.83;;;2.10;;
13571;SDS011;6857;53.484;10.216;2022-10-16T16:18:22;4.03;;;1.60;;
13571;SDS011;6857;53.484;10.216;2022-10-16T16:20:49;5.10;;;2.20;;
13571;SDS011;6857;53.484;10.216;2022-10-16T16:23:15;7.47;;;2.27;;
13571;SDS011;6857;53.484;10.216;2022-10-16T16:25:41;6.00;;;2.90;;
13571;SDS011;6857;53.484;10.216;2022-10-16T16:28:07;14.80;;;6.80;;
13571;SDS011;6857;53.484;10.216;2022-10-16T16:30:35;12.80;;;6.07;;